sensor_id;sensor_type;location;lat;lon;timestamp;temperature;humidity
13606;DHT22;6874;52.084;5.090;2023-05-07T00:00:17;16.00;99.90
13606;DHT22;6874;52.084;5.090;2023-05-07T00:02:44;16.00;99.90
13606;DHT22;6874;52.084;5.090;2023-05-07T00:05:11;16.00;99.90
13606;DHT22;6874;52.084;5.090;2023-05-07T00:07:36;16.00;99.90
13606;DHT22;6874;52.084;5.090;2023-05-07T00:10:03;15.90;99.90
13606;DHT22;6874;52.084;5.090;2023-05-07T00:12:28;15.90;99.90
13606;DHT22;6874;52.084;5.090;2023-05-07T00:14:56;15.90;99.90
13606;DHT22;6874;52.084;5.090;2023-05-07T00:17:22;15.90;99.90
13606;DHT22;6874;52.084;5.090;2023-05-07T00:19:48;15.90;99.90
13606;DHT22;6874;52.084;5.090;2023-05-07T00:22:13;15.90;99.90
13606;DHT22;6874;52.084;5.090;2023-05-07T00:24:39;15.90;99.90
13606;DHT22;6874;52.084;5.090;2023-05-07T00:27:04;15.80;99.90
13606;DHT22;6874;52.084;5.090;2023-05-07T00:29:30;15.80;99.90
13606;DHT22;6874;52.084;5.090;2023-05-07T00:31:56;15.80;99.90
13606;DHT22;6874;52.084;5.090;2023-05-07T00:34:21;15.80;99.90
13606;DHT22;6874;52.084;5.090;2023-05-07T00:36:47;15.80;99.90
13606;DHT22;6874;52.084;5.090;2023-05-07T00:39:13;15.80;99.90
13606;DHT22;6874;52.084;5.090;2023-05-07T00:41:38;15.90;99.90
13606;DHT22;6874;52.084;5.090;2023-05-07T00:44:04;15.80;99.90
13606;DHT22;6874;52.084;5.090;2023-05-07T00:46:30;15.80;99.90
13606;DHT22;6874;52.084;5.090;2023-05-07T00:48:57;15.70;99.90
13606;DHT22;6874;52.084;5.090;2023-05-07T00:51:24;15.70;99.90
13606;DHT22;6874;52.084;5.090;2023-05-07T00:53:50;15.80;99.90
13606;DHT22;6874;52.084;5.090;2023-05-07T00:56:16;15.70;99.90
13606;DHT22;6874;52.084;5.090;2023-05-07T00:58:42;15.70;99.90
13606;DHT22;6874;52.084;5.090;2023-05-07T01:01:08;15.70;99.90
13606;DHT22;6874;52.084;5.090;2023-05-07T01:03:33;15.70;99.90
13606;DHT22;6874;52.084;5.090;2023-05-07T01:06:00;15.70;99.90
13606;DHT22;6874;52.084;5.090;2023-05-07T01:08:26;15.70;99.90
13606;DHT22;6874;52.084;5.090;2023-05-07T01:10:55;15.70;99.90
13606;DHT22;6874;52.084;5.090;2023-05-07T01:13:21;15.70;99.90
13606;DHT22;6874;52.084;5.090;2023-05-07T01:15:47;15.70;99.90
13606;DHT22;6874;52.084;5.090;2023-05-07T01:18:13;15.70;99.90
13606;DHT22;6874;52.084;5.090;2023-05-07T01:20:39;15.60;99.90
13606;DHT22;6874;52.084;5.090;2023-05-07T01:23:07;15.70;99.90
13606;DHT22;6874;52.084;5.090;2023-05-07T01:25:32;15.60;99.90
13606;DHT22;6874;52.084;5.090;2023-05-07T01:27:58;15.60;99.90
13606;DHT22;6874;52.084;5.090;2023-05-07T01:30:26;15.60;99.90
13606;DHT22;6874;52.084;5.090;2023-05-07T01:33:00;15.60;99.90
13606;DHT22;6874;52.084;5.090;2023-05-07T01:35:32;15.60;99.90
13606;DHT22;6874;52.084;5.090;2023-05-07T01:37:58;15.60;99.90
13606;DHT22;6874;52.084;5.090;2023-05-07T01:40:25;15.60;99.90
13606;DHT22;6874;52.084;5.090;2023-05-07T01:42:51;15.60;99.90
13606;DHT22;6874;52.084;5.090;2023-05-07T01:45:17;15.60;99.90
13606;DHT22;6874;52.084;5.090;2023-05-07T01:47:43;15.60;99.90
13606;DHT22;6874;52.084;5.090;2023-05-07T01:50:09;15.50;99.90
13606;DHT22;6874;52.084;5.090;2023-05-07T01:52:37;15.60;99.90
13606;DHT22;6874;52.084;5.090;2023-05-07T01:55:03;15.60;99.90
13606;DHT22;6874;52.084;5.090;2023-05-07T01:57:29;15.60;99.90
13606;DHT22;6874;52.084;5.090;2023-05-07T01:59:54;15.50;99.90
13606;DHT22;6874;52.084;5.090;2023-05-07T02:02:20;15.50;99.90
13606;DHT22;6874;52.084;5.090;2023-05-07T02:04:45;15.50;99.90
13606;DHT22;6874;52.084;5.090;2023-05-07T02:07:11;15.50;99.90
13606;DHT22;6874;52.084;5.090;2023-05-07T02:09:36;15.50;99.90
13606;DHT22;6874;52.084;5.090;2023-05-07T02:12:02;15.50;99.90
13606;DHT22;6874;52.084;5.090;2023-05-07T02:14:28;15.50;99.90
13606;DHT22;6874;52.084;5.090;2023-05-07T02:16:53;15.50;99.90
13606;DHT22;6874;52.084;5.090;2023-05-07T02:19:19;15.50;99.90
13606;DHT22;6874;52.084;5.090;2023-05-07T02:21:46;15.50;99.90
13606;DHT22;6874;52.084;5.090;2023-05-07T02:24:12;15.50;99.90
13606;DHT22;6874;52.084;5.090;2023-05-07T02:26:37;15.40;99.90
13606;DHT22;6874;52.084;5.090;2023-05-07T02:29:03;15.40;99.90
13606;DHT22;6874;52.084;5.090;2023-05-07T02:31:28;15.40;99.90
13606;DHT22;6874;52.084;5.090;2023-05-07T02:33:54;15.40;99.90
13606;DHT22;6874;52.084;5.090;2023-05-07T02:36:19;15.40;99.90
13606;DHT22;6874;52.084;5.090;2023-05-07T02:38:45;15.40;99.90
13606;DHT22;6874;52.084;5.090;2023-05-07T02:41:10;15.40;99.90
13606;DHT22;6874;52.084;5.090;2023-05-07T02:43:36;15.40;99.90
13606;DHT22;6874;52.084;5.090;2023-05-07T02:46:06;15.40;99.90
13606;DHT22;6874;52.084;5.090;2023-05-07T02:48:32;15.30;99.90
13606;DHT22;6874;52.084;5.090;2023-05-07T02:50:58;15.30;99.90
13606;DHT22;6874;52.084;5.090;2023-05-07T02:53:24;15.30;99.90
13606;DHT22;6874;52.084;5.090;2023-05-07T02:55:56;15.50;99.90
13606;DHT22;6874;52.084;5.090;2023-05-07T02:58:22;15.30;99.90
13606;DHT22;6874;52.084;5.090;2023-05-07T03:00:47;15.30;99.90
13606;DHT22;6874;52.084;5.090;2023-05-07T03:03:13;15.30;99.90
13606;DHT22;6874;52.084;5.090;2023-05-07T03:05:39;15.30;99.90
13606;DHT22;6874;52.084;5.090;2023-05-07T03:08:04;15.30;99.90
13606;DHT22;6874;52.084;5.090;2023-05-07T03:10:30;15.30;99.90
13606;DHT22;6874;52.084;5.090;2023-05-07T03:12:56;15.30;99.90
13606;DHT22;6874;52.084;5.090;2023-05-07T03:15:21;15.20;99.90
13606;DHT22;6874;52.084;5.090;2023-05-07T03:17:48;15.30;99.90
13606;DHT22;6874;52.084;5.090;2023-05-07T03:20:13;15.20;99.90
13606;DHT22;6874;52.084;5.090;2023-05-07T03:22:39;15.20;99.90
13606;DHT22;6874;52.084;5.090;2023-05-07T03:25:06;15.10;99.90
13606;DHT22;6874;52.084;5.090;2023-05-07T03:27:31;15.20;99.90
13606;DHT22;6874;52.084;5.090;2023-05-07T03:29:57;15.20;99.90
13606;DHT22;6874;52.084;5.090;2023-05-07T03:32:22;15.10;99.90
13606;DHT22;6874;52.084;5.090;2023-05-07T03:34:48;15.10;99.90
13606;DHT22;6874;52.084;5.090;2023-05-07T03:37:13;15.10;99.90
13606;DHT22;6874;52.084;5.090;2023-05-07T03:39:39;15.10;99.90
13606;DHT22;6874;52.084;5.090;2023-05-07T03:42:05;15.10;99.90
13606;DHT22;6874;52.084;5.090;2023-05-07T03:44:30;15.00;99.90
13606;DHT22;6874;52.084;5.090;2023-05-07T03:46:56;15.00;99.90
13606;DHT22;6874;52.084;5.090;2023-05-07T03:49:21;15.00;99.90
13606;DHT22;6874;52.084;5.090;2023-05-07T03:51:47;15.00;99.90
13606;DHT22;6874;52.084;5.090;2023-05-07T03:54:12;15.00;99.90
13606;DHT22;6874;52.084;5.090;2023-05-07T03:56:38;15.00;99.90
13606;DHT22;6874;52.084;5.090;2023-05-07T03:59:03;15.00;99.90
13606;DHT22;6874;52.084;5.090;2023-05-07T04:01:29;15.00;99.90
13606;DHT22;6874;52.084;5.090;2023-05-07T04:03:55;14.90;99.90
13606;DHT22;6874;52.084;5.090;2023-05-07T04:06:20;15.00;99.90
13606;DHT22;6874;52.084;5.090;2023-05-07T04:08:46;14.90;99.90
13606;DHT22;6874;52.084;5.090;2023-05-07T04:11:12;14.90;99.90
13606;DHT22;6874;52.084;5.090;2023-05-07T04:13:37;14.90;99.90
13606;DHT22;6874;52.084;5.090;2023-05-07T04:16:04;14.90;99.90
13606;DHT22;6874;52.084;5.090;2023-05-07T04:18:30;14.90;99.90
13606;DHT22;6874;52.084;5.090;2023-05-07T04:20:56;14.90;99.90
13606;DHT22;6874;52.084;5.090;2023-05-07T04:23:21;14.90;99.90
13606;DHT22;6874;52.084;5.090;2023-05-07T04:25:47;14.90;99.90
13606;DHT22;6874;52.084;5.090;2023-05-07T04:28:12;14.90;99.90
13606;DHT22;6874;52.084;5.090;2023-05-07T04:30:38;14.90;99.90
13606;DHT22;6874;52.084;5.090;2023-05-07T04:33:04;14.90;99.90
13606;DHT22;6874;52.084;5.090;2023-05-07T04:35:30;14.90;99.90
13606;DHT22;6874;52.084;5.090;2023-05-07T04:37:55;14.90;99.90
13606;DHT22;6874;52.084;5.090;2023-05-07T04:40:21;14.90;99.90
13606;DHT22;6874;52.084;5.090;2023-05-07T04:42:46;14.90;99.90
13606;DHT22;6874;52.084;5.090;2023-05-07T04:45:12;14.90;99.90
13606;DHT22;6874;52.084;5.090;2023-05-07T04:47:38;14.90;99.90
13606;DHT22;6874;52.084;5.090;2023-05-07T04:50:05;14.80;99.90
13606;DHT22;6874;52.084;5.090;2023-05-07T04:52:31;14.90;99.90
13606;DHT22;6874;52.084;5.090;2023-05-07T04:54:59;14.80;99.90
13606;DHT22;6874;52.084;5.090;2023-05-07T04:57:25;14.90;99.90
13606;DHT22;6874;52.084;5.090;2023-05-07T04:59:51;14.90;99.90
13606;DHT22;6874;52.084;5.090;2023-05-07T05:02:17;14.90;99.90
13606;DHT22;6874;52.084;5.090;2023-05-07T05:04:42;14.80;99.90
13606;DHT22;6874;52.084;5.090;2023-05-07T05:07:08;14.90;99.90
13606;DHT22;6874;52.084;5.090;2023-05-07T05:09:33;14.90;99.90
13606;DHT22;6874;52.084;5.090;2023-05-07T05:11:59;14.90;99.90
13606;DHT22;6874;52.084;5.090;2023-05-07T05:14:25;14.90;99.90
13606;DHT22;6874;52.084;5.090;2023-05-07T05:16:50;14.90;99.90
13606;DHT22;6874;52.084;5.090;2023-05-07T05:19:16;14.90;99.90
13606;DHT22;6874;52.084;5.090;2023-05-07T05:21:42;14.90;99.90
13606;DHT22;6874;52.084;5.090;2023-05-07T05:24:08;14.90;99.90
13606;DHT22;6874;52.084;5.090;2023-05-07T05:26:34;14.90;99.90
13606;DHT22;6874;52.084;5.090;2023-05-07T05:29:00;15.00;99.90
13606;DHT22;6874;52.084;5.090;2023-05-07T05:31:25;14.90;99.90
13606;DHT22;6874;52.084;5.090;2023-05-07T05:33:51;14.90;99.90
13606;DHT22;6874;52.084;5.090;2023-05-07T05:36:17;15.00;99.90
13606;DHT22;6874;52.084;5.090;2023-05-07T05:38:42;15.00;99.90
13606;DHT22;6874;52.084;5.090;2023-05-07T05:41:08;15.00;99.90
13606;DHT22;6874;52.084;5.090;2023-05-07T05:43:33;15.00;99.90
13606;DHT22;6874;52.084;5.090;2023-05-07T05:45:59;15.00;99.90
13606;DHT22;6874;52.084;5.090;2023-05-07T05:48:25;15.00;99.90
13606;DHT22;6874;52.084;5.090;2023-05-07T05:50:51;15.10;99.90
13606;DHT22;6874;52.084;5.090;2023-05-07T05:53:16;15.00;99.90
13606;DHT22;6874;52.084;5.090;2023-05-07T05:55:42;15.00;99.90
13606;DHT22;6874;52.084;5.090;2023-05-07T05:58:08;15.00;99.90
13606;DHT22;6874;52.084;5.090;2023-05-07T06:00:34;15.00;99.90
13606;DHT22;6874;52.084;5.090;2023-05-07T06:03:00;15.10;99.90
13606;DHT22;6874;52.084;5.090;2023-05-07T06:05:26;15.00;99.90
13606;DHT22;6874;52.084;5.090;2023-05-07T06:07:51;15.00;99.90
13606;DHT22;6874;52.084;5.090;2023-05-07T06:10:17;15.00;99.90
13606;DHT22;6874;52.084;5.090;2023-05-07T06:12:42;15.00;99.90
13606;DHT22;6874;52.084;5.090;2023-05-07T06:15:08;15.10;99.90
13606;DHT22;6874;52.084;5.090;2023-05-07T06:17:34;15.10;99.90
13606;DHT22;6874;52.084;5.090;2023-05-07T06:20:00;15.10;99.90
13606;DHT22;6874;52.084;5.090;2023-05-07T06:22:25;15.10;99.90
13606;DHT22;6874;52.084;5.090;2023-05-07T06:24:51;15.10;99.90
13606;DHT22;6874;52.084;5.090;2023-05-07T06:27:16;15.10;99.90
13606;DHT22;6874;52.084;5.090;2023-05-07T06:29:42;15.10;99.90
13606;DHT22;6874;52.084;5.090;2023-05-07T06:32:09;15.10;99.90
13606;DHT22;6874;52.084;5.090;2023-05-07T06:34:35;15.20;99.90
13606;DHT22;6874;52.084;5.090;2023-05-07T06:37:01;15.10;99.90
13606;DHT22;6874;52.084;5.090;2023-05-07T06:39:27;15.20;99.90
13606;DHT22;6874;52.084;5.090;2023-05-07T06:41:53;15.20;99.90
13606;DHT22;6874;52.084;5.090;2023-05-07T06:44:18;15.20;99.90
13606;DHT22;6874;52.084;5.090;2023-05-07T06:46:44;15.20;99.90
13606;DHT22;6874;52.084;5.090;2023-05-07T06:49:12;15.20;99.90
13606;DHT22;6874;52.084;5.090;2023-05-07T06:51:38;15.30;99.90
13606;DHT22;6874;52.084;5.090;2023-05-07T06:54:04;15.20;99.90
13606;DHT22;6874;52.084;5.090;2023-05-07T06:56:30;15.30;99.90
13606;DHT22;6874;52.084;5.090;2023-05-07T06:58:56;15.30;99.90
13606;DHT22;6874;52.084;5.090;2023-05-07T07:01:22;15.30;99.90
13606;DHT22;6874;52.084;5.090;2023-05-07T07:03:47;15.30;99.90
13606;DHT22;6874;52.084;5.090;2023-05-07T07:06:13;15.30;99.90
13606;DHT22;6874;52.084;5.090;2023-05-07T07:08:38;15.40;99.90
13606;DHT22;6874;52.084;5.090;2023-05-07T07:11:05;15.40;99.90
13606;DHT22;6874;52.084;5.090;2023-05-07T07:13:30;15.40;99.90
13606;DHT22;6874;52.084;5.090;2023-05-07T07:15:56;15.50;99.90
13606;DHT22;6874;52.084;5.090;2023-05-07T07:18:22;15.50;99.90
13606;DHT22;6874;52.084;5.090;2023-05-07T07:20:47;15.50;99.90
13606;DHT22;6874;52.084;5.090;2023-05-07T07:23:13;15.50;99.90
13606;DHT22;6874;52.084;5.090;2023-05-07T07:25:43;15.60;99.90
13606;DHT22;6874;52.084;5.090;2023-05-07T07:28:08;15.60;99.90
13606;DHT22;6874;52.084;5.090;2023-05-07T07:30:34;15.70;99.90
13606;DHT22;6874;52.084;5.090;2023-05-07T07:32:59;15.70;99.90
13606;DHT22;6874;52.084;5.090;2023-05-07T07:35:31;15.80;99.90
13606;DHT22;6874;52.084;5.090;2023-05-07T07:37:57;15.90;99.90
13606;DHT22;6874;52.084;5.090;2023-05-07T07:40:22;15.90;99.90
13606;DHT22;6874;52.084;5.090;2023-05-07T07:42:48;16.00;99.90
13606;DHT22;6874;52.084;5.090;2023-05-07T07:45:14;16.00;99.90
13606;DHT22;6874;52.084;5.090;2023-05-07T07:47:39;16.00;99.90
13606;DHT22;6874;52.084;5.090;2023-05-07T07:50:06;16.10;99.90
13606;DHT22;6874;52.084;5.090;2023-05-07T07:52:32;16.10;99.90
13606;DHT22;6874;52.084;5.090;2023-05-07T07:54:58;16.20;99.90
13606;DHT22;6874;52.084;5.090;2023-05-07T07:57:23;16.10;99.90
13606;DHT22;6874;52.084;5.090;2023-05-07T07:59:49;16.20;99.90
13606;DHT22;6874;52.084;5.090;2023-05-07T08:02:15;16.20;99.90
13606;DHT22;6874;52.084;5.090;2023-05-07T08:04:41;16.20;99.90
13606;DHT22;6874;52.084;5.090;2023-05-07T08:07:09;16.20;99.90
13606;DHT22;6874;52.084;5.090;2023-05-07T08:09:34;16.30;99.90
13606;DHT22;6874;52.084;5.090;2023-05-07T08:12:00;16.30;99.90
13606;DHT22;6874;52.084;5.090;2023-05-07T08:14:26;16.30;99.90
13606;DHT22;6874;52.084;5.090;2023-05-07T08:16:54;16.30;99.90
13606;DHT22;6874;52.084;5.090;2023-05-07T08:19:19;16.40;99.90
13606;DHT22;6874;52.084;5.090;2023-05-07T08:21:45;16.40;99.90
13606;DHT22;6874;52.084;5.090;2023-05-07T08:24:13;16.40;99.90
13606;DHT22;6874;52.084;5.090;2023-05-07T08:26:39;16.50;99.90
13606;DHT22;6874;52.084;5.090;2023-05-07T08:29:04;16.60;99.90
13606;DHT22;6874;52.084;5.090;2023-05-07T08:31:30;16.60;99.90
13606;DHT22;6874;52.084;5.090;2023-05-07T08:33:57;16.70;99.90
13606;DHT22;6874;52.084;5.090;2023-05-07T08:36:22;16.80;99.90
13606;DHT22;6874;52.084;5.090;2023-05-07T08:38:48;16.80;99.90
13606;DHT22;6874;52.084;5.090;2023-05-07T08:41:15;16.90;99.90
13606;DHT22;6874;52.084;5.090;2023-05-07T08:43:41;17.00;99.90
13606;DHT22;6874;52.084;5.090;2023-05-07T08:46:09;17.10;99.90
13606;DHT22;6874;52.084;5.090;2023-05-07T08:48:35;17.20;99.90
13606;DHT22;6874;52.084;5.090;2023-05-07T08:51:01;17.30;99.90
13606;DHT22;6874;52.084;5.090;2023-05-07T08:53:27;17.30;99.90
13606;DHT22;6874;52.084;5.090;2023-05-07T08:55:53;17.40;99.90
13606;DHT22;6874;52.084;5.090;2023-05-07T08:58:18;17.50;99.90
13606;DHT22;6874;52.084;5.090;2023-05-07T09:00:44;17.60;99.90
13606;DHT22;6874;52.084;5.090;2023-05-07T09:03:10;17.60;99.90
13606;DHT22;6874;52.084;5.090;2023-05-07T09:05:39;17.80;99.90
13606;DHT22;6874;52.084;5.090;2023-05-07T09:08:06;17.80;99.90
13606;DHT22;6874;52.084;5.090;2023-05-07T09:10:35;17.90;99.90
13606;DHT22;6874;52.084;5.090;2023-05-07T09:13:00;17.90;99.90
13606;DHT22;6874;52.084;5.090;2023-05-07T09:15:28;17.90;99.90
13606;DHT22;6874;52.084;5.090;2023-05-07T09:17:54;18.00;99.90
13606;DHT22;6874;52.084;5.090;2023-05-07T09:20:24;18.00;99.90
13606;DHT22;6874;52.084;5.090;2023-05-07T09:22:49;18.10;99.90
13606;DHT22;6874;52.084;5.090;2023-05-07T09:25:28;18.20;99.90
13606;DHT22;6874;52.084;5.090;2023-05-07T09:27:53;18.30;99.90
13606;DHT22;6874;52.084;5.090;2023-05-07T09:30:19;18.30;99.90
13606;DHT22;6874;52.084;5.090;2023-05-07T09:32:44;18.40;99.90
13606;DHT22;6874;52.084;5.090;2023-05-07T09:35:17;18.50;99.90
13606;DHT22;6874;52.084;5.090;2023-05-07T09:37:43;18.60;99.90
13606;DHT22;6874;52.084;5.090;2023-05-07T09:40:23;18.70;99.90
13606;DHT22;6874;52.084;5.090;2023-05-07T09:42:49;18.80;99.90
13606;DHT22;6874;52.084;5.090;2023-05-07T09:45:16;18.90;99.90
13606;DHT22;6874;52.084;5.090;2023-05-07T09:47:48;19.00;99.90
13606;DHT22;6874;52.084;5.090;2023-05-07T09:50:16;19.00;99.90
13606;DHT22;6874;52.084;5.090;2023-05-07T09:52:42;19.10;99.90
13606;DHT22;6874;52.084;5.090;2023-05-07T09:55:08;19.20;99.90
13606;DHT22;6874;52.084;5.090;2023-05-07T09:57:36;19.30;99.90
13606;DHT22;6874;52.084;5.090;2023-05-07T10:00:03;19.50;99.90
13606;DHT22;6874;52.084;5.090;2023-05-07T10:02:35;19.50;99.90
13606;DHT22;6874;52.084;5.090;2023-05-07T10:05:02;19.70;99.90
13606;DHT22;6874;52.084;5.090;2023-05-07T10:07:29;19.80;99.90
13606;DHT22;6874;52.084;5.090;2023-05-07T10:09:55;20.00;99.90
13606;DHT22;6874;52.084;5.090;2023-05-07T10:12:21;20.20;99.90
13606;DHT22;6874;52.084;5.090;2023-05-07T10:14:47;20.30;99.90
13606;DHT22;6874;52.084;5.090;2023-05-07T10:17:13;20.40;99.90
13606;DHT22;6874;52.084;5.090;2023-05-07T10:19:43;20.60;99.90
13606;DHT22;6874;52.084;5.090;2023-05-07T10:22:09;20.70;99.90
13606;DHT22;6874;52.084;5.090;2023-05-07T10:24:36;20.90;99.90
13606;DHT22;6874;52.084;5.090;2023-05-07T10:27:07;21.00;99.90
13606;DHT22;6874;52.084;5.090;2023-05-07T10:29:53;21.10;99.90
13606;DHT22;6874;52.084;5.090;2023-05-07T10:32:49;21.20;99.90
13606;DHT22;6874;52.084;5.090;2023-05-07T10:35:23;21.40;99.90
13606;DHT22;6874;52.084;5.090;2023-05-07T10:37:50;21.50;99.90
13606;DHT22;6874;52.084;5.090;2023-05-07T10:40:16;21.60;99.90
13606;DHT22;6874;52.084;5.090;2023-05-07T10:42:56;21.60;99.90
13606;DHT22;6874;52.084;5.090;2023-05-07T10:45:22;21.70;99.90
13606;DHT22;6874;52.084;5.090;2023-05-07T10:48:14;21.70;99.90
13606;DHT22;6874;52.084;5.090;2023-05-07T10:50:44;21.80;99.90
13606;DHT22;6874;52.084;5.090;2023-05-07T10:58:22;22.00;99.90
13606;DHT22;6874;52.084;5.090;2023-05-07T11:00:49;22.10;99.90
13606;DHT22;6874;52.084;5.090;2023-05-07T11:03:15;22.10;99.90
13606;DHT22;6874;52.084;5.090;2023-05-07T11:05:41;22.10;99.90
13606;DHT22;6874;52.084;5.090;2023-05-07T11:08:08;22.10;99.90
13606;DHT22;6874;52.084;5.090;2023-05-07T11:10:53;22.20;99.90
13606;DHT22;6874;52.084;5.090;2023-05-07T11:18:47;22.30;99.90
13606;DHT22;6874;52.084;5.090;2023-05-07T11:21:35;22.40;99.90
13606;DHT22;6874;52.084;5.090;2023-05-07T11:24:02;22.50;99.90
13606;DHT22;6874;52.084;5.090;2023-05-07T11:26:41;22.60;99.90
13606;DHT22;6874;52.084;5.090;2023-05-07T11:29:15;22.70;99.90
13606;DHT22;6874;52.084;5.090;2023-05-07T11:31:40;22.70;99.90
13606;DHT22;6874;52.084;5.090;2023-05-07T11:34:06;22.80;99.90
13606;DHT22;6874;52.084;5.090;2023-05-07T11:36:33;22.90;99.90
13606;DHT22;6874;52.084;5.090;2023-05-07T11:38:58;22.90;99.90
13606;DHT22;6874;52.084;5.090;2023-05-07T11:41:34;22.90;99.90
13606;DHT22;6874;52.084;5.090;2023-05-07T11:44:01;23.00;99.90
13606;DHT22;6874;52.084;5.090;2023-05-07T11:46:27;23.00;99.90
13606;DHT22;6874;52.084;5.090;2023-05-07T11:48:53;23.00;99.90
13606;DHT22;6874;52.084;5.090;2023-05-07T11:51:23;23.10;99.90
13606;DHT22;6874;52.084;5.090;2023-05-07T11:53:51;23.20;99.90
13606;DHT22;6874;52.084;5.090;2023-05-07T11:56:18;23.30;99.90
13606;DHT22;6874;52.084;5.090;2023-05-07T11:58:45;23.40;99.90
13606;DHT22;6874;52.084;5.090;2023-05-07T12:01:12;23.40;99.90
13606;DHT22;6874;52.084;5.090;2023-05-07T12:03:40;23.50;99.90
13606;DHT22;6874;52.084;5.090;2023-05-07T12:06:09;23.50;99.90
13606;DHT22;6874;52.084;5.090;2023-05-07T12:08:38;23.60;99.90
13606;DHT22;6874;52.084;5.090;2023-05-07T12:11:14;23.60;99.90
13606;DHT22;6874;52.084;5.090;2023-05-07T12:13:41;23.70;99.90
13606;DHT22;6874;52.084;5.090;2023-05-07T12:16:07;23.60;99.90
13606;DHT22;6874;52.084;5.090;2023-05-07T12:18:34;23.70;99.90
13606;DHT22;6874;52.084;5.090;2023-05-07T12:21:01;23.80;99.90
13606;DHT22;6874;52.084;5.090;2023-05-07T12:23:26;23.80;99.90
13606;DHT22;6874;52.084;5.090;2023-05-07T12:25:52;24.00;99.90
13606;DHT22;6874;52.084;5.090;2023-05-07T12:28:18;23.90;99.90
13606;DHT22;6874;52.084;5.090;2023-05-07T12:30:46;24.00;99.90
13606;DHT22;6874;52.084;5.090;2023-05-07T12:33:12;24.10;99.90
13606;DHT22;6874;52.084;5.090;2023-05-07T12:35:42;24.10;99.90
13606;DHT22;6874;52.084;5.090;2023-05-07T12:38:12;24.10;99.90
13606;DHT22;6874;52.084;5.090;2023-05-07T12:40:43;24.10;99.90
13606;DHT22;6874;52.084;5.090;2023-05-07T12:43:35;24.20;99.90
13606;DHT22;6874;52.084;5.090;2023-05-07T12:46:04;24.30;99.90
13606;DHT22;6874;52.084;5.090;2023-05-07T12:48:30;24.30;99.90
13606;DHT22;6874;52.084;5.090;2023-05-07T12:50:56;24.30;99.90
13606;DHT22;6874;52.084;5.090;2023-05-07T12:53:25;24.30;99.90
13606;DHT22;6874;52.084;5.090;2023-05-07T12:55:53;24.30;99.90
13606;DHT22;6874;52.084;5.090;2023-05-07T12:58:20;24.40;99.90
13606;DHT22;6874;52.084;5.090;2023-05-07T13:00:50;24.40;99.90
13606;DHT22;6874;52.084;5.090;2023-05-07T13:03:29;24.40;99.90
13606;DHT22;6874;52.084;5.090;2023-05-07T13:05:57;24.50;99.90
13606;DHT22;6874;52.084;5.090;2023-05-07T13:08:25;24.40;99.90
13606;DHT22;6874;52.084;5.090;2023-05-07T13:10:53;24.40;99.90
13606;DHT22;6874;52.084;5.090;2023-05-07T13:13:19;24.40;99.90
13606;DHT22;6874;52.084;5.090;2023-05-07T13:15:46;24.50;99.90
13606;DHT22;6874;52.084;5.090;2023-05-07T13:18:12;24.50;99.90
13606;DHT22;6874;52.084;5.090;2023-05-07T13:20:37;24.50;99.90
13606;DHT22;6874;52.084;5.090;2023-05-07T13:23:03;24.50;99.90
13606;DHT22;6874;52.084;5.090;2023-05-07T13:25:30;24.50;99.90
13606;DHT22;6874;52.084;5.090;2023-05-07T13:27:57;24.50;99.90
13606;DHT22;6874;52.084;5.090;2023-05-07T13:30:22;24.50;99.90
13606;DHT22;6874;52.084;5.090;2023-05-07T13:32:48;24.50;99.90
13606;DHT22;6874;52.084;5.090;2023-05-07T13:35:14;24.60;99.90
13606;DHT22;6874;52.084;5.090;2023-05-07T13:37:40;24.60;99.90
13606;DHT22;6874;52.084;5.090;2023-05-07T13:40:06;24.60;99.90
13606;DHT22;6874;52.084;5.090;2023-05-07T13:42:32;24.60;99.90
13606;DHT22;6874;52.084;5.090;2023-05-07T13:44:57;24.70;99.90
13606;DHT22;6874;52.084;5.090;2023-05-07T13:47:23;24.70;99.90
13606;DHT22;6874;52.084;5.090;2023-05-07T13:49:48;24.70;99.90
13606;DHT22;6874;52.084;5.090;2023-05-07T13:52:15;24.70;99.90
13606;DHT22;6874;52.084;5.090;2023-05-07T13:54:41;24.80;99.90
13606;DHT22;6874;52.084;5.090;2023-05-07T13:57:07;24.80;99.90
13606;DHT22;6874;52.084;5.090;2023-05-07T13:59:33;24.80;99.90
13606;DHT22;6874;52.084;5.090;2023-05-07T14:01:59;24.90;99.90
13606;DHT22;6874;52.084;5.090;2023-05-07T14:04:25;24.90;99.90
13606;DHT22;6874;52.084;5.090;2023-05-07T14:06:51;24.90;99.90
13606;DHT22;6874;52.084;5.090;2023-05-07T14:09:16;24.90;99.90
13606;DHT22;6874;52.084;5.090;2023-05-07T14:11:42;24.90;99.90
13606;DHT22;6874;52.084;5.090;2023-05-07T14:14:08;24.90;99.90
13606;DHT22;6874;52.084;5.090;2023-05-07T14:16:38;24.80;99.90
13606;DHT22;6874;52.084;5.090;2023-05-07T14:19:04;24.80;99.90
13606;DHT22;6874;52.084;5.090;2023-05-07T14:21:29;24.70;99.90
13606;DHT22;6874;52.084;5.090;2023-05-07T14:23:56;24.70;99.90
13606;DHT22;6874;52.084;5.090;2023-05-07T14:26:21;24.70;99.90
13606;DHT22;6874;52.084;5.090;2023-05-07T14:28:48;24.70;99.90
13606;DHT22;6874;52.084;5.090;2023-05-07T14:31:14;24.70;99.90
13606;DHT22;6874;52.084;5.090;2023-05-07T14:33:40;24.60;99.90
13606;DHT22;6874;52.084;5.090;2023-05-07T14:36:08;24.50;99.90
13606;DHT22;6874;52.084;5.090;2023-05-07T14:38:34;24.50;99.90
13606;DHT22;6874;52.084;5.090;2023-05-07T14:41:00;24.40;99.90
13606;DHT22;6874;52.084;5.090;2023-05-07T14:43:25;24.30;99.90
13606;DHT22;6874;52.084;5.090;2023-05-07T14:45:51;24.20;99.90
13606;DHT22;6874;52.084;5.090;2023-05-07T14:48:17;24.00;99.90
13606;DHT22;6874;52.084;5.090;2023-05-07T14:50:42;23.90;99.90
13606;DHT22;6874;52.084;5.090;2023-05-07T14:53:08;23.80;99.90
13606;DHT22;6874;52.084;5.090;2023-05-07T14:55:34;23.70;99.90
13606;DHT22;6874;52.084;5.090;2023-05-07T14:58:00;23.60;99.90
13606;DHT22;6874;52.084;5.090;2023-05-07T15:00:26;23.50;99.90
13606;DHT22;6874;52.084;5.090;2023-05-07T15:02:51;23.40;99.90
13606;DHT22;6874;52.084;5.090;2023-05-07T15:05:17;23.30;99.90
13606;DHT22;6874;52.084;5.090;2023-05-07T15:07:44;23.10;99.90
13606;DHT22;6874;52.084;5.090;2023-05-07T15:10:11;23.00;99.90
13606;DHT22;6874;52.084;5.090;2023-05-07T15:12:36;22.80;99.90
13606;DHT22;6874;52.084;5.090;2023-05-07T15:15:02;22.70;99.90
13606;DHT22;6874;52.084;5.090;2023-05-07T15:17:28;22.60;99.90
13606;DHT22;6874;52.084;5.090;2023-05-07T15:19:53;22.40;99.90
13606;DHT22;6874;52.084;5.090;2023-05-07T15:22:19;22.20;99.90
13606;DHT22;6874;52.084;5.090;2023-05-07T15:24:46;22.10;99.90
13606;DHT22;6874;52.084;5.090;2023-05-07T15:27:12;22.00;99.90
13606;DHT22;6874;52.084;5.090;2023-05-07T15:29:37;21.80;99.90
13606;DHT22;6874;52.084;5.090;2023-05-07T15:32:03;21.70;99.90
13606;DHT22;6874;52.084;5.090;2023-05-07T15:34:28;21.60;99.90
13606;DHT22;6874;52.084;5.090;2023-05-07T15:36:55;21.50;99.90
13606;DHT22;6874;52.084;5.090;2023-05-07T15:39:22;21.40;99.90
13606;DHT22;6874;52.084;5.090;2023-05-07T15:41:47;21.40;99.90
13606;DHT22;6874;52.084;5.090;2023-05-07T15:44:13;21.20;99.90
13606;DHT22;6874;52.084;5.090;2023-05-07T15:46:39;21.20;99.90
13606;DHT22;6874;52.084;5.090;2023-05-07T15:49:04;21.10;99.90
13606;DHT22;6874;52.084;5.090;2023-05-07T15:51:30;20.90;99.90